Latest Weather Observations for Montague Island

IDN60801

Issued at 11:35 pm EST Saturday 20 September 2014 (issued every 30 minutes, with the page automatically refreshed every 10 minutes)

About weather observations | Map of weather stations | Latest weather observations for NSW | Other Formats
Station Details ID: 069017 Name: MONTAGUE ISLAND LIGHTHOUSE Lat: -36.25 Lon: 150.23 Height: 52.0 m
Data from the previous 72 hours. | See also: Recent months at Montague Island
Date/Time
EST
Temp
°C
App
Temp
°C
Dew
Point
Rel
Hum
%
Delta-T
°C
Wind Press
QNH
hPa
Press
MSL
hPa
Rain
since 9 am
mm
Dir
 
Spd
km/h
Gust
km/h
Spd
kts
Gust
kts
20/11:30pm 13.3 9.0 9.2 76 2.1 SW 22 30 12 16 1028.2 1028.2 0.0
20/11:00pm 13.4 8.3 9.1 75 2.2 SSW 26 33 14 18 1028.3 1028.3 0.0
20/10:30pm 13.4 7.5 9.1 75 2.2 SSW 30 39 16 21 1028.1 1028.1 0.0
20/10:00pm 13.8 8.4 9.5 75 2.2 SSW 28 35 15 19 1028.0 1028.0 0.0
20/09:30pm 14.2 6.9 8.8 70 2.7 SSW 37 43 20 23 1027.8 1027.8 0.0
20/09:00pm 14.3 6.9 8.5 68 2.9 SSW 37 44 20 24 1027.5 1027.5 0.0
20/08:30pm 14.4 7.2 9.2 71 2.7 S 37 46 20 25 1027.3 1027.3 0.0
20/08:00pm 14.6 7.4 9.0 69 2.8 S 37 44 20 24 1027.1 1027.1 0.0
20/07:30pm 14.8 8.2 8.7 67 3.1 S 33 43 18 23 1026.8 1026.8 0.0
20/07:00pm 14.9 8.6 10.9 77 2.1 SSE 35 41 19 22 1026.3 1026.3 0.0
20/06:30pm 14.9 7.9 10.1 73 2.5 SSE 37 43 20 23 1025.7 1025.7 0.0
20/06:00pm 15.2 6.8 9.1 67 3.1 SSE 43 52 23 28 1025.0 1025.0 0.0
20/05:30pm 15.3 6.9 9.0 66 3.2 SSE 43 48 23 26 1024.6 1024.6 0.0
20/05:00pm 15.5 7.1 9.0 65 3.3 SSE 43 50 23 27 1024.0 1024.0 0.0
20/04:30pm 15.6 7.5 8.8 64 3.5 SSE 41 50 22 27 1023.6 1023.6 0.0
20/04:00pm 15.7 8.0 8.7 63 3.6 SSE 39 44 21 24 1023.7 1023.7 0.0
20/03:30pm 15.9 9.0 8.9 63 3.6 SSE 35 41 19 22 1023.5 1023.5 0.0
20/03:00pm 16.0 10.0 8.7 62 3.7 SSE 30 35 16 19 1023.5 1023.5 0.0
20/02:30pm 16.2 10.3 8.9 62 3.8 SSE 30 33 16 18 1023.4 1023.4 0.0
20/02:00pm 16.4 10.7 8.4 59 4.1 SSE 28 33 15 18 1023.6 1023.6 0.0
20/01:30pm 16.6 11.7 8.3 58 4.2 SSE 24 28 13 15 1023.6 1023.6 0.0
20/01:00pm 17.0 12.2 5.6 47 5.5 SSE 20 26 11 14 1023.6 1023.6 0.0
20/12:30pm 18.1 13.6 4.3 40 6.6 SSW 17 24 9 13 1023.9 1023.9 0.0
20/12:00pm 18.7 13.7 4.5 39 6.8 SW 20 26 11 14 1024.0 1024.0 0.0
20/11:30am 18.1 12.1 3.6 38 6.8 SW 24 33 13 18 1024.3 1024.3 0.0
20/11:00am 17.5 10.8 3.8 40 6.4 WSW 28 37 15 20 1024.3 1024.3 0.0
20/10:30am 16.4 8.7 3.5 42 6.0 WSW 33 41 18 22 1024.3 1024.3 0.0
20/10:00am 16.2 9.2 3.9 44 5.7 WSW 30 37 16 20 1024.4 1024.4 0.0
20/09:30am 15.2 7.1 3.0 44 5.5 WSW 35 44 19 24 1024.4 1024.4 0.0
20/09:00am 14.5 5.9 2.7 45 5.2 WSW 37 48 20 26 1024.2 1024.2 0.0
20/08:30am 14.0 5.6 3.5 49 4.8 WSW 37 46 20 25 1024.0 1024.0 0.0
20/08:00am 13.5 5.0 3.3 50 4.6 WSW 37 48 20 26 1024.0 1024.0 0.0
20/07:30am 12.6 5.5 3.3 53 4.1 W 30 37 16 20 1023.8 1023.8 0.0
20/07:00am 11.9 4.8 3.4 56 3.7 WSW 30 33 16 18 1023.6 1023.6 0.0
20/06:30am 11.6 5.0 4.3 61 3.3 WSW 28 33 15 18 1023.3 1023.3 0.0
20/06:00am 11.3 4.5 5.2 66 2.8 SW 30 37 16 20 1023.0 1023.0 0.0
20/05:30am 12.1 3.4 3.9 57 3.7 SSW 39 50 21 27 1022.5 1022.5 0.0
20/05:00am 12.1 3.1 4.6 60 3.4 SSW 41 50 22 27 1022.2 1022.2 0.0
20/04:30am 12.4 3.1 4.9 60 3.5 SSW 43 52 23 28 1021.6 1021.6 0.0
20/04:00am 12.5 3.6 5.0 60 3.4 SSW 41 56 22 30 1021.4 1021.4 0.0
20/03:30am 12.6 3.3 5.1 60 3.5 SSW 43 54 23 29 1020.9 1020.9 0.0
20/03:00am 12.7 3.4 5.1 60 3.5 SSW 43 50 23 27 1020.7 1020.7 0.0
20/02:30am 12.9 5.9 6.0 63 3.3 SSW 32 41 17 22 1020.8 1020.8 0.0
20/02:00am 13.0 7.3 6.6 65 3.1 SSW 26 33 14 18 1020.9 1020.9 0.0
20/01:30am 12.5 8.1 7.4 71 2.5 SSW 20 24 11 13 1020.9 1020.9 0.0
20/01:00am 12.8 8.8 6.8 67 2.9 SW 17 22 9 12 1021.0 1021.0 0.0
20/12:30am 12.9 9.1 5.6 61 3.4 SW 15 19 8 10 1020.9 1020.9 0.0
20/12:00am 13.1 8.9 5.5 60 3.6 SW 17 20 9 11 1020.9 1020.9 0.0
 
Date/Time
EST
Temp
°C
App
Temp
°C
Dew
Point
Rel
Hum
%
Delta-T
°C
Wind Press
QNH
hPa
Press
MSL
hPa
Rain
since 9 am
mm
Dir
 
Spd
km/h
Gust
km/h
Spd
kts
Gust
kts
19/11:30pm 13.6 9.6 6.5 62 3.4 SSW 17 20 9 11 1021.0 1021.0 0.0
19/11:00pm 13.4 11.5 7.4 67 2.9 SSW 7 13 4 7 1021.2 1021.2 0.0
19/10:30pm 13.8 12.2 6.4 61 3.6 WSW 4 6 2 3 1021.2 1021.2 0.0
19/10:00pm 13.8 11.8 6.4 61 3.5 NW 6 9 3 5 1021.2 1021.2 0.0
19/09:30pm 14.1 11.7 6.9 62 3.5 NW 9 15 5 8 1021.2 1021.2 0.0
19/09:00pm 14.5 11.0 7.1 61 3.6 WNW 15 20 8 11 1021.0 1021.0 0.0
19/08:30pm 14.7 10.9 5.8 55 4.3 WNW 15 24 8 13 1020.9 1020.9 0.0
19/08:00pm 14.6 10.8 7.6 63 3.5 W 17 22 9 12 1020.8 1020.8 0.0
19/07:30pm 14.7 11.5 6.8 59 3.9 WNW 13 19 7 10 1020.5 1020.5 0.0
19/07:00pm 15.1 11.6 7.4 60 3.8 N 15 22 8 12 1020.1 1020.1 0.0
19/06:30pm 15.3 10.7 8.3 63 3.5 S 22 30 12 16 1019.7 1019.7 0.0
19/06:00pm 16.1 9.1 6.0 51 4.9 SSW 32 39 17 21 1019.0 1019.0 0.0
19/05:30pm 16.4 9.6 5.1 47 5.4 SSW 30 37 16 20 1018.8 1018.8 0.0
19/05:00pm 16.3 10.1 6.2 51 4.9 S 28 35 15 19 1018.7 1018.7 0.0
19/04:30pm 17.1 10.3 5.1 45 5.8 SSW 30 37 16 20 1018.5 1018.5 0.0
19/04:00pm 17.3 9.7 3.9 41 6.3 SW 33 43 18 23 1018.2 1018.1 0.0
19/03:30pm 17.5 10.3 5.1 44 6.0 SW 32 39 17 21 1018.0 1017.9 0.0
19/03:00pm 17.9 11.3 6.1 46 5.8 SSW 30 39 16 21 1018.0 1017.9 0.0
19/02:30pm 17.9 10.7 4.8 42 6.3 S 32 37 17 20 1018.0 1017.9 0.0
19/02:00pm 18.3 12.2 4.8 41 6.5 S 26 35 14 19 1018.3 1018.3 0.0
19/01:30pm 16.6 12.4 3.7 42 6.0 SSE 15 22 8 12 1018.7 1018.7 0.0
19/01:00pm 17.4 13.9 3.3 39 6.5 S 11 17 6 9 1019.0 1019.0 0.0
19/12:30pm 15.6 12.1 3.4 44 5.6 SE 11 13 6 7 1019.6 1019.6 0.0
19/12:00pm 16.1 12.4 2.2 39 6.2 S 11 15 6 8 1020.0 1020.0 0.0
19/11:30am 15.5 12.5 2.0 40 6.0 SE 7 17 4 9 1020.4 1020.4 0.0
19/11:00am 16.1 13.0 0.3 34 6.8 W 6 11 3 6 1020.7 1020.7 0.0
19/10:30am 15.7 11.3 0.3 35 6.6 WNW 13 20 7 11 1021.0 1021.0 0.0
19/10:00am 14.7 9.5 -0.2 36 6.2 WNW 17 24 9 13 1021.3 1021.3 0.0
19/09:30am 14.0 8.7 1.6 43 5.4 WNW 19 24 10 13 1021.6 1021.6 0.0
19/09:00am 13.4 8.1 1.7 45 5.0 WNW 19 26 10 14 1021.7 1021.7 0.0
19/08:30am 12.5 7.3 2.4 50 4.4 WNW 19 22 10 12 1021.9 1021.9 0.0
19/08:00am 12.2 8.5 2.1 50 4.3 WNW 11 19 6 10 1021.8 1021.8 0.0
19/07:30am 11.8 7.6 1.7 50 4.3 W 13 17 7 9 1021.7 1021.7 0.0
19/07:00am 11.3 7.3 2.6 55 3.8 WSW 13 19 7 10 1021.4 1021.4 0.0
19/06:30am 10.2 5.3 2.1 57 3.4 SW 17 22 9 12 1021.2 1021.2 0.0
19/06:00am 9.7 5.2 2.3 60 3.1 WSW 15 19 8 10 1020.8 1020.8 0.0
19/05:30am 9.9 4.6 1.8 57 3.4 SW 19 22 10 12 1020.7 1020.7 0.0
19/05:00am 10.0 5.8 4.0 66 2.6 WSW 15 20 8 11 1020.3 1020.3 0.0
19/04:30am 9.9 6.7 3.2 63 2.9 SW 9 13 5 7 1019.9 1019.9 0.0
19/04:00am 9.8 5.6 3.8 66 2.6 W 15 19 8 10 1019.8 1019.8 0.0
19/03:30am 9.9 4.5 2.5 60 3.2 W 20 24 11 13 1019.7 1019.7 0.0
19/03:00am 10.4 5.2 2.5 58 3.4 WNW 19 24 10 13 1019.6 1019.6 0.0
19/02:30am 10.8 6.6 3.6 61 3.2 WNW 15 22 8 12 1019.7 1019.7 0.0
19/02:00am 10.7 7.0 2.5 57 3.5 W 11 15 6 8 1020.0 1020.0 0.0
19/01:30am 10.9 6.9 3.0 58 3.4 WSW 13 17 7 9 1020.2 1020.2 0.0
19/01:00am 11.3 6.6 3.1 57 3.6 SW 17 20 9 11 1020.4 1020.4 0.0
19/12:30am 11.3 6.7 3.6 59 3.4 WSW 17 22 9 12 1020.4 1020.4 0.0
19/12:00am 11.7 6.0 2.7 54 3.9 SW 22 28 12 15 1020.3 1020.3 0.0
 
Date/Time
EST
Temp
°C
App
Temp
°C
Dew
Point
Rel
Hum
%
Delta-T
°C
Wind Press
QNH
hPa
Press
MSL
hPa
Rain
since 9 am
mm
Dir
 
Spd
km/h
Gust
km/h
Spd
kts
Gust
kts
18/11:30pm 11.9 5.9 3.2 55 3.8 SW 24 30 13 16 1020.2 1020.2 0.0
18/11:00pm 11.9 5.9 3.2 55 3.8 SW 24 30 13 16 1020.4 1020.4 0.0
18/10:30pm 12.1 4.8 2.6 52 4.1 SW 30 35 16 19 1020.4 1020.4 0.0
18/10:00pm 12.4 3.2 3.4 54 4.0 SW 41 48 22 26 1020.3 1020.3 0.0
18/09:30pm 12.7 4.1 4.9 59 3.6 SW 39 48 21 26 1020.2 1020.2 0.0
18/09:00pm 12.7 5.4 4.4 57 3.8 SSW 32 43 17 23 1020.3 1020.3 0.0
18/08:30pm 12.9 4.9 3.8 54 4.1 SSW 35 43 19 23 1020.0 1020.0 0.0
18/08:00pm 13.2 4.4 3.8 53 4.2 SSW 39 48 21 26 1019.7 1019.7 0.0
18/07:30pm 13.5 5.1 3.6 51 4.5 SSW 37 46 20 25 1019.5 1019.5 0.0
18/07:00pm 13.8 6.8 3.9 51 4.5 SSW 30 35 16 19 1019.1 1019.1 0.0
18/06:30pm 14.1 6.7 4.1 51 4.6 S 32 35 17 19 1018.8 1018.8 0.0
18/06:00pm 14.6 6.6 1.8 42 5.6 SSW 33 41 18 22 1018.4 1018.4 0.0
18/05:30pm 15.0 7.2 2.9 44 5.5 SW 33 43 18 23 1017.9 1017.8 0.0
18/05:00pm 15.3 7.3 0.7 37 6.3 SW 32 41 17 22 1017.6 1017.5 0.0
18/04:30pm 15.0 9.7 5.0 51 4.7 S 22 28 12 15 1017.5 1017.4 0.0
18/04:00pm 16.0 7.8 0.6 35 6.7 SSW 33 43 18 23 1017.1 1017.0 0.0
18/03:30pm 16.2 7.9 -0.1 33 7.0 SSW 33 44 18 24 1016.8 1016.7 0.0
18/03:00pm 16.0 7.5 0.6 35 6.7 SSW 35 43 19 23 1016.6 1016.5 0.0
18/02:30pm 16.3 7.8 1.2 36 6.6 SSW 35 44 19 24 1016.5 1016.4 0.0
18/02:00pm 16.8 8.5 2.4 38 6.5 SW 35 44 19 24 1016.4 1016.3 0.0
18/01:30pm 16.6 9.1 1.5 36 6.7 SSW 30 37 16 20 1016.6 1016.5 0.0
18/01:00pm 16.6 8.6 0.3 33 7.0 SW 32 41 17 22 1016.8 1016.7 0.0
18/12:30pm 16.1 7.6 1.0 36 6.6 SW 35 50 19 27 1017.0 1016.9 0.0
18/12:00pm 15.7 6.3 -0.1 34 6.7 SW 39 46 21 25 1017.1 1017.0 0.0
18/11:30am 16.1 8.2 1.0 36 6.6 SW 32 43 17 23 1017.3 1017.2 0.0
18/11:00am 15.4 6.9 0.8 37 6.3 SW 35 46 19 25 1017.5 1017.4 0.0
18/10:30am 15.2 6.0 1.0 38 6.2 WSW 39 54 21 29 1017.3 1017.2 0.0
18/10:00am 15.1 7.2 2.3 42 5.7 SW 33 44 18 24 1017.8 1017.7 0.0
18/09:30am 14.2 6.8 1.8 43 5.4 WSW 30 39 16 21 1017.8 1017.7 0.0
18/09:00am 13.4 3.8 1.1 43 5.2 WSW 41 52 22 28 1017.4 1017.3 0.0
18/08:30am 12.7 4.7 0.1 42 5.2 WSW 32 39 17 21 1017.4 1017.3 0.0
18/08:00am 12.5 5.7 0.9 45 4.9 WSW 26 35 14 19 1017.3 1017.2 0.0
18/07:30am 12.2 6.3 1.5 48 4.6 WSW 22 28 12 15 1017.2 1017.1 0.0
18/07:00am 11.7 3.8 1.1 48 4.4 WSW 32 37 17 20 1016.5 1016.4 0.0
18/06:30am 11.4 3.5 1.1 49 4.3 WSW 32 41 17 22 1015.9 1015.8 0.0
18/06:00am 10.9 3.8 1.2 51 4.0 W 28 37 15 20 1015.7 1015.6 0.0
18/05:30am 11.1 3.5 0.5 48 4.4 WSW 30 35 16 19 1015.5 1015.4 0.0
18/05:00am 11.1 3.9 0.8 49 4.3 WSW 28 33 15 18 1015.3 1015.2 0.0
18/04:30am 11.1 3.0 0.8 49 4.3 WSW 33 41 18 22 1014.9 1014.8 0.0
18/04:00am 11.4 3.9 1.4 50 4.2 WSW 30 43 16 23 1014.7 1014.6 0.0
18/03:30am 11.1 5.0 0.5 48 4.4 WSW 22 30 12 16 1014.5 1014.4 0.0
18/03:00am 11.0 4.9 0.7 49 4.3 W 22 28 12 15 1014.3 1014.2 0.0
18/02:30am 10.8 4.8 1.1 51 4.0 WSW 22 30 12 16 1014.4 1014.3 0.0
18/02:00am 10.9 3.4 0.9 50 4.1 WSW 30 35 16 19 1014.3 1014.2 0.0
18/01:30am 11.2 2.4 1.2 50 4.2 WSW 37 44 20 24 1014.4 1014.3 0.0
18/01:00am 11.4 2.2 1.4 50 4.2 SW 39 44 21 24 1014.4 1014.3 0.0
18/12:30am 11.5 1.0 1.2 49 4.3 SW 46 57 25 31 1014.1 1014.0 0.0
18/12:00am 11.4 1.4 1.9 52 4.1 SW 44 54 24 29 1014.3 1014.2 0.0

Other Formats:

Comma delimited format used in spreadsheet applications
http://www.bom.gov.au/fwo/IDN60801/IDN60801.94939.axf

JavaScript Object Notation format (JSON) in row-major order
http://www.bom.gov.au/fwo/IDN60801/IDN60801.94939.json